createdAt,value
2018-06-04T00:00:45.404Z,18.70
2018-06-04T00:03:15.085Z,18.64
2018-06-04T00:05:44.264Z,18.83
2018-06-04T00:08:13.532Z,18.72
2018-06-04T00:10:42.516Z,18.67
2018-06-04T00:13:11.468Z,18.55
2018-06-04T00:15:40.503Z,18.53
2018-06-04T00:18:09.663Z,18.57
2018-06-04T00:20:38.787Z,18.59
2018-06-04T00:23:07.896Z,18.44
2018-06-04T00:25:36.816Z,18.16
2018-06-04T00:28:05.776Z,18.09
2018-06-04T00:30:34.916Z,18.27
2018-06-04T00:33:03.964Z,18.16
2018-06-04T00:35:32.884Z,18.11
2018-06-04T00:38:01.843Z,18.12
2018-06-04T00:40:30.959Z,18.16
2018-06-04T00:43:00.025Z,18.06
2018-06-04T00:45:29.358Z,17.87
2018-06-04T00:47:58.422Z,17.68
2018-06-04T00:50:27.438Z,17.87
2018-06-04T00:52:56.383Z,17.92
2018-06-04T00:55:25.302Z,17.70
2018-06-04T00:57:54.224Z,17.76
2018-06-04T01:00:23.291Z,17.68
2018-06-04T01:02:52.200Z,17.62
2018-06-04T01:05:21.301Z,17.53
2018-06-04T01:07:50.376Z,17.61
2018-06-04T01:10:19.403Z,17.65
2018-06-04T01:12:48.359Z,17.80
2018-06-04T01:15:17.626Z,17.68
2018-06-04T01:17:46.520Z,17.52
2018-06-04T01:20:15.439Z,17.46
2018-06-04T01:22:44.434Z,17.59
2018-06-04T01:25:13.548Z,17.76
2018-06-04T01:27:42.492Z,17.71
2018-06-04T01:30:12.235Z,17.45
2018-06-04T01:32:41.447Z,17.49
2018-06-04T01:35:10.405Z,17.46
2018-06-04T01:37:39.611Z,17.41
2018-06-04T01:40:09.060Z,17.33
2018-06-04T01:42:37.991Z,17.33
2018-06-04T01:45:07.000Z,17.31
2018-06-04T01:47:36.114Z,17.29
2018-06-04T01:50:05.302Z,17.32
2018-06-04T01:52:34.371Z,17.28
2018-06-04T01:55:03.510Z,17.31
2018-06-04T01:57:32.441Z,17.35
2018-06-04T02:00:01.683Z,17.25
2018-06-04T02:02:30.586Z,17.35
2018-06-04T02:04:59.668Z,17.45
2018-06-04T02:07:28.745Z,17.41
2018-06-04T02:09:57.941Z,17.43
2018-06-04T02:12:26.951Z,17.45
2018-06-04T02:14:56.043Z,17.36
2018-06-04T02:17:25.127Z,16.91
2018-06-04T02:19:54.553Z,16.92
2018-06-04T02:22:23.625Z,17.14
2018-06-04T02:24:52.563Z,17.12
2018-06-04T02:27:21.839Z,17.08
2018-06-04T02:29:50.934Z,16.95
2018-06-04T02:32:20.034Z,16.96
2018-06-04T02:34:49.124Z,17.03
2018-06-04T02:37:18.217Z,16.94
2018-06-04T02:39:47.528Z,17.05
2018-06-04T02:42:16.617Z,16.95
2018-06-04T02:44:45.719Z,16.76
2018-06-04T02:47:14.824Z,16.61
2018-06-04T02:49:43.880Z,16.83
2018-06-04T02:52:13.011Z,16.85
2018-06-04T02:54:42.145Z,16.90
2018-06-04T02:57:11.192Z,16.83
2018-06-04T02:59:40.098Z,16.82
2018-06-04T03:02:09.176Z,16.82
2018-06-04T03:04:38.240Z,16.95
2018-06-04T03:07:07.371Z,16.71
2018-06-04T03:09:36.438Z,16.84
2018-06-04T03:12:05.387Z,16.82
2018-06-04T03:14:34.415Z,16.65
2018-06-04T03:17:03.531Z,16.61
2018-06-04T03:19:32.621Z,16.61
2018-06-04T03:22:01.739Z,16.68
2018-06-04T03:24:30.655Z,16.75
2018-06-04T03:26:59.716Z,16.80
2018-06-04T03:29:28.888Z,16.75
2018-06-04T03:31:58.410Z,16.69
2018-06-04T03:34:27.309Z,16.55
2018-06-04T03:36:56.406Z,16.62
2018-06-04T03:39:25.486Z,16.69
2018-06-04T03:41:54.605Z,16.71
2018-06-04T03:44:23.659Z,16.69
2018-06-04T03:46:52.628Z,16.59
2018-06-04T03:49:21.795Z,16.59
2018-06-04T03:51:51.072Z,16.67
2018-06-04T03:54:20.523Z,16.72
2018-06-04T03:56:49.678Z,16.78
2018-06-04T03:59:18.751Z,16.74
2018-06-04T04:01:48.260Z,16.83
2018-06-04T04:04:18.167Z,16.80
2018-06-04T04:06:47.281Z,16.60
2018-06-04T04:09:16.457Z,16.73
2018-06-04T04:11:45.592Z,16.76
2018-06-04T04:14:14.682Z,16.73
2018-06-04T04:16:43.781Z,16.73
2018-06-04T04:19:12.693Z,16.77
2018-06-04T04:21:42.015Z,16.78
2018-06-04T04:24:11.243Z,16.55
2018-06-04T04:26:40.353Z,16.62
2018-06-04T04:29:09.527Z,16.61
2018-06-04T04:31:38.812Z,16.63
2018-06-04T04:34:07.928Z,16.67
2018-06-04T04:36:37.034Z,16.54
2018-06-04T04:39:08.890Z,16.66
2018-06-04T04:41:37.999Z,16.95
2018-06-04T04:44:07.072Z,16.96
2018-06-04T04:46:36.191Z,16.95
2018-06-04T04:49:05.563Z,16.81
2018-06-04T04:51:34.740Z,16.84
2018-06-04T04:54:03.864Z,17.07
2018-06-04T04:56:33.076Z,17.12
2018-06-04T04:59:05.536Z,17.26
2018-06-04T05:01:34.659Z,17.44
2018-06-04T05:04:04.318Z,17.58
2018-06-04T05:06:33.511Z,17.80
2018-06-04T05:09:04.548Z,18.10
2018-06-04T05:11:33.707Z,18.21
2018-06-04T05:14:02.644Z,18.18
2018-06-04T05:16:31.908Z,18.03
2018-06-04T05:19:04.155Z,17.96
2018-06-04T05:21:33.247Z,18.00
2018-06-04T05:24:02.342Z,18.16
2018-06-04T05:26:31.473Z,18.20
2018-06-04T05:29:04.923Z,18.27
2018-06-04T05:31:34.151Z,18.69
2018-06-04T05:34:03.249Z,18.92
2018-06-04T05:36:32.523Z,18.69
2018-06-04T05:39:03.133Z,19.09
2018-06-04T05:41:32.747Z,18.94
2018-06-04T05:44:01.879Z,18.74
2018-06-04T05:46:32.385Z,19.03
2018-06-04T05:49:05.907Z,19.03
2018-06-04T05:51:34.967Z,18.77
2018-06-04T05:54:04.089Z,18.68
2018-06-04T05:56:34.036Z,18.63
2018-06-04T05:59:04.239Z,18.42
2018-06-04T06:01:33.179Z,18.22
2018-06-04T06:04:02.410Z,18.04
2018-06-04T06:06:31.715Z,18.12
2018-06-04T06:09:06.805Z,18.07
2018-06-04T06:11:36.038Z,18.15
2018-06-04T06:14:05.800Z,18.29
2018-06-04T06:16:35.080Z,18.74
2018-06-04T06:19:04.459Z,18.62
2018-06-04T06:21:33.532Z,18.96
2018-06-04T06:24:02.880Z,19.05
2018-06-04T06:26:31.927Z,19.39
2018-06-04T06:29:04.732Z,19.61
2018-06-04T06:31:33.887Z,19.61
2018-06-04T06:34:02.993Z,19.68
2018-06-04T06:36:32.224Z,19.67
2018-06-04T06:39:06.589Z,20.15
2018-06-04T06:41:36.126Z,20.42
2018-06-04T06:44:05.239Z,19.88
2018-06-04T06:46:34.166Z,19.97
2018-06-04T06:49:03.986Z,19.75
2018-06-04T06:51:33.035Z,19.99
2018-06-04T06:54:02.141Z,20.44
2018-06-04T06:56:32.468Z,20.73
2018-06-04T06:59:04.599Z,21.96
2018-06-04T07:01:33.865Z,22.26
2018-06-04T07:04:03.154Z,24.14
2018-06-04T07:06:32.201Z,25.28
2018-06-04T07:09:08.244Z,26.12
2018-06-04T07:11:37.358Z,26.15
2018-06-04T07:14:06.635Z,26.43
2018-06-04T07:16:35.768Z,27.89
2018-06-04T07:19:04.798Z,28.11
2018-06-04T07:21:34.055Z,28.93
2018-06-04T07:24:03.147Z,28.26
2018-06-04T07:26:32.083Z,26.29
2018-06-04T07:29:05.263Z,28.18
2018-06-04T07:31:34.488Z,29.19
2018-06-04T07:34:03.531Z,28.80
2018-06-04T07:36:32.724Z,27.20
2018-06-04T07:39:03.583Z,27.04
2018-06-04T07:41:32.956Z,25.42
2018-06-04T07:44:02.075Z,25.63
2018-06-04T07:46:30.998Z,25.56
2018-06-04T07:49:03.884Z,26.46
2018-06-04T07:51:32.929Z,26.89
2018-06-04T07:54:02.033Z,26.32
2018-06-04T07:56:31.111Z,26.15
2018-06-04T07:59:04.443Z,25.17
2018-06-04T08:01:33.547Z,25.81
2018-06-04T08:04:02.604Z,26.05
2018-06-04T08:06:32.145Z,25.23
2018-06-04T08:09:03.066Z,25.36
2018-06-04T08:11:32.239Z,25.42
2018-06-04T08:14:01.171Z,26.44
2018-06-04T08:16:30.253Z,26.66
2018-06-04T08:19:02.465Z,26.67
2018-06-04T08:21:31.730Z,26.36
2018-06-04T08:24:01.267Z,26.84
2018-06-04T08:26:31.007Z,26.76
2018-06-04T08:29:03.198Z,27.28
2018-06-04T08:31:32.475Z,27.63
2018-06-04T08:34:02.671Z,27.76
2018-06-04T08:36:31.951Z,28.93
2018-06-04T08:39:08.105Z,29.73
2018-06-04T08:41:37.143Z,31.25
2018-06-04T08:44:06.255Z,32.00
2018-06-04T08:46:35.331Z,32.22
2018-06-04T08:49:04.540Z,31.78
2018-06-04T08:51:33.633Z,31.23
2018-06-04T08:54:02.578Z,31.78
2018-06-04T08:56:31.825Z,32.09
2018-06-04T08:59:04.219Z,31.73
2018-06-04T09:01:33.475Z,30.38
2018-06-04T09:04:02.629Z,29.04
2018-06-04T09:06:31.691Z,28.26
2018-06-04T09:09:06.543Z,28.83
2018-06-04T09:11:36.217Z,29.24
2018-06-04T09:14:05.194Z,29.34
2018-06-04T09:16:34.439Z,30.28
2018-06-04T09:19:03.823Z,31.50
2018-06-04T09:21:32.773Z,30.19
2018-06-04T09:24:01.996Z,31.68
2018-06-04T09:26:30.943Z,30.31
2018-06-04T09:29:04.919Z,32.27
2018-06-04T09:31:36.863Z,32.48
2018-06-04T09:34:05.998Z,32.75
2018-06-04T09:36:35.107Z,33.39
2018-06-04T09:39:05.495Z,31.28
2018-06-04T09:41:34.822Z,29.79
2018-06-04T09:44:04.128Z,29.87
2018-06-04T09:46:33.390Z,31.84
2018-06-04T09:49:04.279Z,32.18
2018-06-04T09:51:33.324Z,33.23
2018-06-04T09:54:02.311Z,33.18
2018-06-04T09:56:31.325Z,33.05
2018-06-04T09:59:03.984Z,33.20
2018-06-04T10:01:33.080Z,33.99
2018-06-04T10:04:02.169Z,34.46
2018-06-04T10:06:31.367Z,34.82
2018-06-04T10:09:06.606Z,34.95
2018-06-04T10:11:35.716Z,35.65
2018-06-04T10:14:05.263Z,35.41
2018-06-04T10:16:34.548Z,36.05
2018-06-04T10:19:04.709Z,35.81
2018-06-04T10:21:33.855Z,35.44
2018-06-04T10:24:02.766Z,35.88
2018-06-04T10:26:32.039Z,33.15
2018-06-04T10:29:02.852Z,31.31
2018-06-04T10:31:32.178Z,30.49
2018-06-04T10:34:01.248Z,32.84
2018-06-04T10:36:30.356Z,33.21
2018-06-04T10:39:03.413Z,32.68
2018-06-04T10:41:33.056Z,32.94
2018-06-04T10:44:01.996Z,33.34
2018-06-04T10:46:31.747Z,33.82
2018-06-04T10:49:02.768Z,35.07
2018-06-04T10:51:31.965Z,34.26
2018-06-04T10:54:01.007Z,32.32
2018-06-04T10:56:31.100Z,32.27
2018-06-04T10:59:03.912Z,30.59
2018-06-04T11:01:32.980Z,27.88
2018-06-04T11:04:01.900Z,29.06
2018-06-04T11:06:31.195Z,29.08
2018-06-04T11:09:06.649Z,28.55
2018-06-04T11:11:35.918Z,29.50
2018-06-04T11:14:05.061Z,29.42
2018-06-04T11:16:34.643Z,29.62
2018-06-04T11:19:03.834Z,30.07
2018-06-04T11:21:32.918Z,30.47
2018-06-04T11:24:01.995Z,30.05
2018-06-04T11:26:31.308Z,30.02
2018-06-04T11:29:04.498Z,29.33
2018-06-04T11:31:33.588Z,28.45
2018-06-04T11:34:02.662Z,28.85
2018-06-04T11:36:31.702Z,28.63
2018-06-04T11:39:05.775Z,28.89
2018-06-04T11:41:34.890Z,28.40
2018-06-04T11:44:04.031Z,29.13
2018-06-04T11:46:33.071Z,29.08
2018-06-04T11:49:04.611Z,28.70
2018-06-04T11:51:33.732Z,28.79
2018-06-04T11:54:02.804Z,29.32
2018-06-04T11:56:32.011Z,28.29
2018-06-04T11:59:04.300Z,28.31
2018-06-04T12:01:33.383Z,28.74
2018-06-04T12:04:02.652Z,28.59
2018-06-04T12:06:31.779Z,29.30
2018-06-04T12:09:02.741Z,28.87
2018-06-04T12:11:32.051Z,28.29
2018-06-04T12:14:01.093Z,28.03
2018-06-04T12:16:30.275Z,27.68
2018-06-04T12:19:02.838Z,27.79
2018-06-04T12:21:31.988Z,28.33
2018-06-04T12:24:01.070Z,28.80
2018-06-04T12:26:30.026Z,29.02
2018-06-04T12:29:02.841Z,28.36
2018-06-04T12:31:32.051Z,28.05
2018-06-04T12:34:01.159Z,28.11
2018-06-04T12:36:30.256Z,28.24
2018-06-04T12:39:02.509Z,28.34
2018-06-04T12:41:31.430Z,29.21
2018-06-04T12:44:00.930Z,29.00
2018-06-04T12:46:29.996Z,29.18
2018-06-04T12:49:02.875Z,28.85
2018-06-04T12:51:32.391Z,28.75
2018-06-04T12:54:01.901Z,28.95
2018-06-04T12:56:31.900Z,29.19
2018-06-04T12:59:04.491Z,29.08
2018-06-04T13:01:33.479Z,29.09
2018-06-04T13:04:02.852Z,29.51
2018-06-04T13:06:31.906Z,28.82
2018-06-04T13:09:06.289Z,29.02
2018-06-04T13:11:35.336Z,28.34
2018-06-04T13:14:04.672Z,28.35
2018-06-04T13:16:33.606Z,28.43
2018-06-04T13:19:03.398Z,28.92
2018-06-04T13:21:32.503Z,29.21
2018-06-04T13:24:01.429Z,29.05
2018-06-04T13:26:30.482Z,29.00
2018-06-04T13:29:03.236Z,29.36
2018-06-04T13:31:32.204Z,29.52
2018-06-04T13:34:01.174Z,29.44
2018-06-04T13:36:30.080Z,29.89
2018-06-04T13:39:02.028Z,29.87
2018-06-04T13:41:30.971Z,29.58
2018-06-04T13:43:59.921Z,29.55
2018-06-04T13:46:28.866Z,29.73
2018-06-04T13:49:01.940Z,28.95
2018-06-04T13:51:31.162Z,29.09
2018-06-04T13:54:00.324Z,29.04
2018-06-04T13:56:29.577Z,29.24
2018-06-04T13:59:01.763Z,29.12
2018-06-04T14:01:31.743Z,29.07
2018-06-04T14:04:00.935Z,29.42
2018-06-04T14:06:29.835Z,29.47
2018-06-04T14:09:01.885Z,29.70
2018-06-04T14:11:30.820Z,29.36
2018-06-04T14:13:59.841Z,29.51
2018-06-04T14:16:28.777Z,29.59
2018-06-04T14:19:02.544Z,29.43
2018-06-04T14:21:31.469Z,28.94
2018-06-04T14:24:00.391Z,29.04
2018-06-04T14:26:29.284Z,28.69
2018-06-04T14:28:59.794Z,28.32
2018-06-04T14:31:31.738Z,28.59
2018-06-04T14:34:00.675Z,28.23
2018-06-04T14:36:29.926Z,27.52
2018-06-04T14:39:06.063Z,27.55
2018-06-04T14:41:35.207Z,28.06
2018-06-04T14:44:04.166Z,28.05
2018-06-04T14:46:33.120Z,27.52
2018-06-04T14:49:03.565Z,27.43
2018-06-04T14:51:32.519Z,27.60
2018-06-04T14:54:01.521Z,27.45
2018-06-04T14:56:30.514Z,27.88
2018-06-04T14:59:03.025Z,28.20
2018-06-04T15:01:32.277Z,28.17
2018-06-04T15:04:01.250Z,28.22
2018-06-04T15:06:30.221Z,28.47
2018-06-04T15:09:02.275Z,28.63
2018-06-04T15:11:31.226Z,28.85
2018-06-04T15:14:00.215Z,28.27
2018-06-04T15:16:29.198Z,28.70
2018-06-04T15:19:01.345Z,28.89
2018-06-04T15:21:30.532Z,28.93
2018-06-04T15:24:00.099Z,28.85
2018-06-04T15:26:29.111Z,28.82
2018-06-04T15:29:02.813Z,28.74
2018-06-04T15:31:31.754Z,28.88
2018-06-04T15:34:00.740Z,28.66
2018-06-04T15:36:29.653Z,28.39
2018-06-04T15:39:02.238Z,28.33
2018-06-04T15:41:31.501Z,28.24
2018-06-04T15:44:00.471Z,28.33
2018-06-04T15:46:29.412Z,28.21
2018-06-04T15:48:58.465Z,28.05
2018-06-04T15:51:27.603Z,28.25
2018-06-04T15:53:56.858Z,28.15
2018-06-04T15:56:25.770Z,28.04
2018-06-04T15:58:54.696Z,28.18
2018-06-04T16:01:24.929Z,28.34
2018-06-04T16:03:54.072Z,28.09
2018-06-04T16:06:23.306Z,28.34
2018-06-04T16:08:52.617Z,28.48
2018-06-04T16:11:21.593Z,28.37
2018-06-04T16:13:50.530Z,28.34
2018-06-04T16:16:19.566Z,28.14
2018-06-04T16:18:48.623Z,28.08
2018-06-04T16:21:17.751Z,28.08
2018-06-04T16:23:47.445Z,28.31
2018-06-04T16:26:16.511Z,28.35
2018-06-04T16:28:45.419Z,27.90
2018-06-04T16:31:14.439Z,28.10
2018-06-04T16:33:44.143Z,28.09
2018-06-04T16:36:13.084Z,27.97
2018-06-04T16:38:42.062Z,28.18
2018-06-04T16:41:11.243Z,28.03
2018-06-04T16:43:40.319Z,27.92
2018-06-04T16:46:09.301Z,27.63
2018-06-04T16:48:38.243Z,27.76
2018-06-04T16:51:07.615Z,27.73
2018-06-04T16:53:36.549Z,27.74
2018-06-04T16:56:05.546Z,27.47
2018-06-04T16:58:34.458Z,27.57
2018-06-04T17:01:03.429Z,27.22
2018-06-04T17:03:32.554Z,27.33
2018-06-04T17:06:01.491Z,27.27
2018-06-04T17:08:30.568Z,27.10
2018-06-04T17:10:59.511Z,27.19
2018-06-04T17:13:28.734Z,27.19
2018-06-04T17:15:57.720Z,27.24
2018-06-04T17:18:26.763Z,27.24
2018-06-04T17:20:55.740Z,27.11
2018-06-04T17:23:24.703Z,26.96
2018-06-04T17:25:54.377Z,26.97
2018-06-04T17:28:23.490Z,26.92
2018-06-04T17:30:52.786Z,26.80
2018-06-04T17:33:21.714Z,26.71
2018-06-04T17:35:50.993Z,26.63
2018-06-04T17:38:20.297Z,26.64
2018-06-04T17:40:49.551Z,26.66
2018-06-04T17:43:18.775Z,26.64
2018-06-04T17:45:48.308Z,26.52
2018-06-04T17:48:17.399Z,26.50
2018-06-04T17:50:46.603Z,26.44
2018-06-04T17:53:15.690Z,26.45
2018-06-04T17:55:44.628Z,26.42
2018-06-04T17:58:13.546Z,26.22
2018-06-04T18:00:42.682Z,26.31
2018-06-04T18:03:12.027Z,26.20
2018-06-04T18:05:41.483Z,26.01
2018-06-04T18:08:10.970Z,26.05
2018-06-04T18:10:40.187Z,26.05
2018-06-04T18:13:09.299Z,26.11
2018-06-04T18:15:38.371Z,26.08
2018-06-04T18:18:07.883Z,25.88
2018-06-04T18:20:37.079Z,25.80
2018-06-04T18:23:06.586Z,25.71
2018-06-04T18:25:35.668Z,25.60
2018-06-04T18:28:04.778Z,25.63
2018-06-04T18:30:33.954Z,25.55
2018-06-04T18:33:03.067Z,25.45
2018-06-04T18:35:32.348Z,25.46
2018-06-04T18:38:01.470Z,25.40
2018-06-04T18:40:30.559Z,25.39
2018-06-04T18:42:59.667Z,25.26
2018-06-04T18:45:28.946Z,25.19
2018-06-04T18:47:58.103Z,25.16
2018-06-04T18:50:27.638Z,25.10
2018-06-04T18:52:56.786Z,24.93
2018-06-04T18:55:26.046Z,24.93
2018-06-04T18:57:55.924Z,24.92
2018-06-04T20:27:04.267Z,22.98
2018-06-04T20:29:33.948Z,23.08
2018-06-04T20:32:03.119Z,23.02
2018-06-04T20:34:32.139Z,22.98
2018-06-04T20:37:01.392Z,22.85
2018-06-04T20:39:30.351Z,22.87
2018-06-04T20:41:59.689Z,22.84
2018-06-04T20:44:28.907Z,22.66
2018-06-04T20:46:57.865Z,22.66
2018-06-04T20:49:26.798Z,22.68
2018-06-04T20:51:55.723Z,22.79
2018-06-04T20:54:24.779Z,22.73
2018-06-04T20:56:53.730Z,22.75
2018-06-04T20:59:22.691Z,22.58
2018-06-04T21:01:52.034Z,22.53
2018-06-04T21:04:21.025Z,22.43
2018-06-04T21:06:49.956Z,22.35
2018-06-04T21:09:18.895Z,22.35
2018-06-04T21:11:48.083Z,22.34
2018-06-04T21:14:18.223Z,22.33
2018-06-04T21:16:47.151Z,22.18
2018-06-04T21:19:16.357Z,22.17
2018-06-04T21:21:45.701Z,22.15
2018-06-04T21:24:14.967Z,22.06
2018-06-04T21:26:44.878Z,22.05
2018-06-04T21:29:13.977Z,22.02
2018-06-04T21:31:43.167Z,21.90
2018-06-04T21:34:12.288Z,21.88
2018-06-04T21:36:41.222Z,21.84
2018-06-04T21:39:10.517Z,21.80
2018-06-04T21:41:39.752Z,21.78
2018-06-04T21:44:08.702Z,21.81
2018-06-04T21:46:37.663Z,21.79
2018-06-04T21:49:06.879Z,21.76
2018-06-04T21:51:36.033Z,21.66
2018-06-04T21:54:05.129Z,21.62
2018-06-04T21:56:34.243Z,21.61
2018-06-04T21:59:03.539Z,21.59
2018-06-04T22:01:32.838Z,21.55
2018-06-04T22:04:01.950Z,21.58
2018-06-04T22:06:30.990Z,21.47
2018-06-04T22:09:00.092Z,21.48
2018-06-04T22:11:29.509Z,21.51
2018-06-04T22:13:58.774Z,21.49
2018-06-04T22:16:28.086Z,21.34
2018-06-04T22:18:57.182Z,21.28
2018-06-04T22:21:26.566Z,21.28
2018-06-04T22:23:55.781Z,21.26
2018-06-04T22:26:24.944Z,21.28
2018-06-04T22:28:54.197Z,21.39
2018-06-04T22:31:23.418Z,21.28
2018-06-04T22:33:52.670Z,21.21
2018-06-04T22:36:21.655Z,21.29
2018-06-04T22:38:50.859Z,21.18
2018-06-04T22:41:19.778Z,21.14
2018-06-04T22:43:49.050Z,21.05
2018-06-04T22:46:18.185Z,21.01
2018-06-04T22:48:47.103Z,21.06
2018-06-04T22:51:16.460Z,20.88
2018-06-04T22:53:45.559Z,20.92
2018-06-04T22:56:14.643Z,20.88
2018-06-04T22:58:43.558Z,20.92
2018-06-04T23:01:12.634Z,20.80
2018-06-04T23:03:41.728Z,20.82
2018-06-04T23:06:11.028Z,20.72
2018-06-04T23:08:40.555Z,20.73
2018-06-04T23:11:09.627Z,20.70
2018-06-04T23:13:38.732Z,20.71
2018-06-04T23:16:07.823Z,20.70
2018-06-04T23:18:36.807Z,20.61
2018-06-04T23:21:05.933Z,20.44
2018-06-04T23:23:35.029Z,20.49
2018-06-04T23:26:04.144Z,20.45
2018-06-04T23:28:33.394Z,20.40
2018-06-04T23:31:02.536Z,20.32
2018-06-04T23:33:31.991Z,20.25
2018-06-04T23:36:01.112Z,20.25
2018-06-04T23:38:30.177Z,20.14
2018-06-04T23:40:59.401Z,18.30
2018-06-04T23:43:28.357Z,19.91
2018-06-04T23:45:57.334Z,19.94
2018-06-04T23:48:26.278Z,20.02
2018-06-04T23:50:55.575Z,20.08
2018-06-04T23:53:24.710Z,20.11
2018-06-04T23:55:54.830Z,20.00
2018-06-04T23:58:24.077Z,20.02
